Pagrindinis puslapis
METAR-TAF:

METAR-TAF

Oro uostai :

Orlando Executive Airport

Orlandas, Florida, Jungtinės Amerikos Valstijos

platuma: 28-32-47N, ilguma: 081-20-09W, Aukštis: 34 m

Dabartinis oras

Ataskaita buvo paskelbta 1 valandą ir 7 minutes, ne 17:53 UTC
Vėjas 11 kt iš Vakarų/Šiaurės Vakarų
Temperatūra 28°C
Drėgmė 55%
Slėgis 1013 hPa
Matomumas: 16.1 km
Išsisklaidę debesys ne aukštis 3500 ft

METAR: KORL 171753Z 29011KT 10SM SCT035 28/18 A2992 RMK AO2 SLP134 T02780178 10283 20222 58016

Laikas: 15:00 (19:00 UTC)


TAF: trūkstamas

Orai ataskaitas ir orų prognozės (METAR, TAF).

turimą stotys yra geltonos ir raudonos taškus žemėlapyje.

Perkelti pele per norėdami pamatyti stoties vardą.

Tada spustelėkite, norėdami matyti oro stebėjimo ir prognozės.

Norėdami pakeisti žemėlapį: spustelėkite ant žalios mygtukų su juodo kryžiaus žemyn,; žalią mygtuką su brūkšneliu, jei norite nutolinti; arba žalių rodyklių gretimoms žemėlapius.


METAR-TAF: